Timeline UpdatesTrip UpdatesNews PostsPvt PostsTravel TipsAdmin PostsConv PostsFollowed PostsChat RequestsBlog PostsPNR Posts

Disclaimer
Search
 
 
Sun Aug 24, 2014 00:30:01 ISTHomeTrainsΣChainsAtlasPNRForumGalleryNewsFAQTripsMembersLoginFeedback
No Recent News for this Train
Other Trains in the News **new
Latest...
.
Sat Sep 10, 2011 (03:37PM)
⇐ Return Journey: Train# 11464

11463/Somnath-Jabalpur Express

Jul 02 2013 (6:48PM)
Change Departure Station:
Change Arrival Station:
Post a Train Travel TipPost a Train Travel Tip **new
Post a Comment/Question/Picture/VideoPost a Comment/Question/Picture/Video
Pantry/Catering
✕ NO Pantry Car
✓ Catering Avbl
There is NO Pantry.; CATERING AVAILABLE. Food served at Jetalsar.
Loco/Rake Reversals
BRC/Vadodara Junction (7); ET/Itarsi Junction (7);
RSA - Rake Sharing
Has RSA with 11465/11466 Somnath-Jabalpur Express.
Rake/Coach Composition
LOCO-SLR-GS-GS-S11-S10-S9-S8-S7-S6-S5-S4-S3-S2-S1-B3-B2-B1-A1-GS-GS-SLR
Loco
WDM 2/3 of Ratlam Shed. & WAp4ET
News    PNR    Forum    Time-Table    Availability    Fare Chart    Map    Arr/Dep History    Trips    Gallery    ΣChains    X/O    Timeline    
Travel Time: 4h 25m    7 halts    Distance: 245 km    Avg Speed: 55 km/hr
Type: Mail/Express
Zone: WCR/West Central
Departs @ 10:45 (Avg 22m late)
Platform# 2
 M WTFS
Itarsi Junction/ET 
Arrives @ 15:10 (Avg 18m late)
Platform# 4
 M WTFS
Jabalpur Junction/JBP 

7 halts. 25 intermediate Stations between Itarsi Junction and Jabalpur Junction

Show ALL intermediate Stations  Show Old Time-Table

#CodeStation NameX/OArrivesAvgDepartsAvgHaltPFDay#KmSpeedElevZoneAddress
1SMNHSomnath (2)  -09:30+211-1171.43012mWRSomnath, Gujarat
2VRLVeraval (5)X  09:40+209:50+310m11-1166.4608mWRVeraval, Gujarat
3MLHAMaliya Hatina (2)X  10:20+1710:22+162m--1-1136.26454mWRMalia, Gujarat
4KSDKeshod (2)  10:37+2010:39+212m11-1120.14446mWRKeshod, Gujarat
5JNDJunagadh Junction (5)  11:27+2311:29+242m--1-1084.75886mWRJunagadh, Gujarat
6JLRJetalsar Junction (5)  11:56+2512:04+278m--1-1058.739108mWRRajkot, Gujarat
7VRRVirpur (2)  12:34+1912:36+182m--1-1039.262121mWRRajkot, Gujarat
8GDLGondal (3)  12:52+1512:54+142m11-1022.643141mWRGondal, Gujarat
9BKNGBhakti Nagar (3)  13:43+413:45+132m11-987.428142mWRRajkot, Gujarat
10RJTRajkot Junction (5)  13:58+1414:03+165m11-981.270128mWRRajkot, Gujarat
11WKRWankaner Junction (4)X  14:39+2814:41+292m--1-939.55587mWRWankaner, Gujarat
12THANThan Junction (3)  15:10+2815:12+282m11-912.967138mWRThangadh, Gujarat
13SUNRSurendranagar Junction (4)X  15:55+2715:57+272m--1-865.25372mWRSurendra Nagar, Gujarat
14VGViramgam Junction (5)  17:11+1517:13+172m--1-799.75529mWRViramgam, Gujarat
15ADIAhmedabad Junction (12)X  18:25+1818:45+1620m41-734.35651mWRAhmedabad, Gujarat
16MHDMahemdavad Kheda Road (4)X  19:15+2919:17+292m21-706.37537mWRMahemdavad, Gujarat
17NDNadiad Junction (4)  19:31+3019:33+312m11-688.86237mWRNadiad, Gujarat
18ANNDAnand Junction (6)X  19:51+3019:53+302m11-670.35144mWRAnand, Gujarat
19BRCVadodara Junction (7)X20:35+2821:00+3325m41-634.5-36mWRVadodara 390005, Gujarat
20DRLDerolXO  21:20+1:3121:42+1:2122m11-584.23181mWRKalol, Gujarat
21GDAGodhra Junction (3)X  22:28+1822:30+182m21-560.680122mWRGodhra, Gujarat
22DHDDahod (3)  23:25+1:0023:27+1:002m--1-487.590313mWRDahod, Gujarat
23MGNMeghnagar (3)  23:49+1:0723:51+1:072m--1-454.446317mWRJhabua, Madhya Pradesh
24RTMRatlam Junction (7)X  01:35+3601:50+3815m52-374.175495mWRRatlam, Madhya Pradesh
25KUHKhachrod (2)  02:12+4902:14+502m--2-346.546497mWRUjjain, Madhya Pradesh
26NADNagda Junction (4)O  02:32+4102:35+453m--2-332.751468mWRNagda, Madhya Pradesh
27UJNUjjain Junction (8)  03:40+3903:50+5010m--2-277.180492mWRUjjain 456001, Madhya Pradesh
28TANTarana RoadO  04:15+1:0304:17+1:032m--2-243.621498mWRMaksi, Madhya Pradesh
29MKCMaksi Junction (3)X  04:45+4804:47+472m--2-234.081513mWRMakshi, Madhya Pradesh
30BCHBerchha (2)  05:01+5305:03+532m--2-215.266490mWRShajapur, Madhya Pradesh
31KSHKali Sindh (2)  05:14+5205:16+512m--2-203.072443mWRShajapur, Madhya Pradesh
32AKDAkodia (2)  05:31+5205:33+532m12-185.156460mWRDist. Shajapur, Madhya Pradesh
33SJPShujalpur (3)X  05:47+5205:49+512m--2-172.163453mWRShujalpur, Madhya Pradesh
34KPPKalapipal (2)  06:01+5206:03+512m12-159.570487mWRState Highway 41, Madhya Pradesh
35PRBParbati (2)  06:16+5206:18+522m--2-144.364472mWRSehore, Madhya Pradesh
36SEHSehore (2)X  06:31+5106:33+512m22-130.418500mWRMP 466001, Madhya Pradesh
37BIHBairagarh (2)08:08+508:10+82m22-102.031522mWRBhopal, Madhya Pradesh
38BPLBhopal Junction (6)X  08:30+1808:35+285m42-91.738497mWCRBhopal, Madhya Pradesh
39HBJBhopal HabibGanj (5)  08:45+3208:47+322m42-85.561496mWCRHabibGanj, Madhya Pradesh
40HBDHoshangabad (2)X  09:53+3209:55+322m--2-18.131308mWCRHoshangabad, Madhya Pradesh
41ET»Itarsi Junction (7)»X10:30+2010:45+2215m220.071329mWCRItarsi 461111, Madhya Pradesh
42SGPSohagpur (2)X11:27+4911:29+562m--249.576340mWCRSohagpur, Madhya Pradesh
43PPIPipariya (3)X  11:43+5611:45+572m1267.290338mWCRPiparia, Madhya Pradesh
44GARGadarwara (2)  12:18+1:0912:20+1:102m12116.659352mWCRNarsinghpur, Madhya Pradesh
45KYKareli (2)XO  12:49+1:0112:51+1:022m12145.131361mWCRKareli, Madhya Pradesh
46NUNarsinghpur (2)  13:22+4813:24+482m12161.055365mWCRNarsimhapur, Madhya Pradesh
47SRIDShridham (3)X  13:58+4314:00+432m22192.173373mWCRShridham, Madhya Pradesh
48MMLMadan Mahal (3)  14:41+3114:43+312m32241.77428mWCRJabalpur, Madhya Pradesh
49JBP•Jabalpur Junction (4)•  15:10+18-42245.0-416mWCRJabalpur, Madhya Pradesh
Scroll to Top
Scroll to Bottom